Ash Fork, AZ

2:34 AM MST on September 17, 2014 (GMT -0700)
3 mi. due north of Ash Fork AZ | Change Station
CLOSE
Current Station
Personal Weather Station
Location: Ash Fork, AZ
Elevation: 5395 ft
Nearby Weather Stations
Active Advisory: Flash Flood Watch

Elev 5395 ft 35.27 °N, 112.49 °W | Updated 4 minutes ago

Mostly Cloudy
Mostly Cloudy
61.2 °F
Feels Like 61.2 °F
N
0.0
Wind Variable Wind from SE
Gusts 0.0 mph

Today
High -- | Low -- °F
--% Chance of Precip.
Yesterday
High -- | Low -- °F
Precip. -- in
6:14 AM 6:34 PM
Last Quarter, 37% visible
Pressure 29.85 in
Visibility 10.0 miles
Clouds Overcast 12000 ft
Dew Point 59 °F
Humidity 93%
Rainfall 0.00 in
Snow Depth 0 in , 0 in , 1 in
UV 0 out of 12
Pollen 6.30 out of 12
Air Quality Not available.
Flu Activity Not available.
METAR KPRC 170853Z AUTO 17004KT 10SM OVC120 19/13 A3009 RMK AO2 SLP106 T01890133 56015

More Conditions Fewer Conditions

Pressure 29.85 in
Visibility 10.0 miles
Clouds Overcast 12000 ft
Dew Point 59 °F
Humidity 93%
Rainfall 0.00 in
Snow Depth 0 in , 0 in , 1 in
UV 0 out of 12
Pollen 6.30 out of 12
Air Quality Not available.
Flu Activity Not available.
METAR KPRC 170853Z AUTO 17004KT 10SM OVC120 19/13 A3009 RMK AO2 SLP106 T01890133 56015

More Conditions Fewer Conditions

10-Day Weather Forecast

Almanac

Astronomy

Sep. 17, 2014 Rise Set
Actual Time 6:14 AM MST 6:34 PM MST
Civil Twilight 5:49 AM MST 6:59 PM MST
Nautical Twilight 5:19 AM MST 7:29 PM MST
Astronomical Twilight 4:49 AM MST 7:59 PM MST
Moon 12:27 AM MST 2:38 PM MST
Length of Visible Light 13h 10m
Length of Day
12h 19m
Tomorrow will be 2m 11s shorter.
Last Quarter, 37% of the Moon is Illuminated
Today
Last Quarter
Sep 24
New
Oct 1
First Quarter
Oct 8
Full
Oct 15
Last Quarter

Today's Extremes

State Highs State Lows

Community

WunderPhotos

Upload Photos

1,753,991 photos uploaded!

Nearby

Snow Depth

Station Depth Elevation
Baker Butte 0 in 7300 ft
Fry 0 in 7200 ft
Coronado Trail 0 in 8400 ft
Workman Creek 1 in 6900 ft
White Horse Lake 0 in 7180 ft

Earthquake Activity

City Distance Mag. Time & Date
No recent earthquake activity has been reported nearby.
Minimum magnitude displayed is 2.5.

Coastal Water Temperatures

Place Temperature
No Stations Reporting

Nearby Weather Stations